sensor_id;sensor_type;location;lat;lon;timestamp;P1;durP1;ratioP1;P2;durP2;ratioP2
12593;SDS011;6362;50.208;9.182;2023-11-19T00:01:00;1.55;;;1.40;;
12593;SDS011;6362;50.208;9.182;2023-11-19T00:03:26;3.83;;;1.55;;
12593;SDS011;6362;50.208;9.182;2023-11-19T00:05:51;3.42;;;2.00;;
12593;SDS011;6362;50.208;9.182;2023-11-19T00:08:17;3.83;;;2.40;;
12593;SDS011;6362;50.208;9.182;2023-11-19T00:10:42;2.70;;;2.30;;
12593;SDS011;6362;50.208;9.182;2023-11-19T00:13:07;3.25;;;1.58;;
12593;SDS011;6362;50.208;9.182;2023-11-19T00:15:33;2.75;;;2.00;;
12593;SDS011;6362;50.208;9.182;2023-11-19T00:17:58;3.75;;;1.90;;
12593;SDS011;6362;50.208;9.182;2023-11-19T00:20:24;10.80;;;3.15;;
12593;SDS011;6362;50.208;9.182;2023-11-19T00:22:49;2.30;;;1.80;;
12593;SDS011;6362;50.208;9.182;2023-11-19T00:25:18;3.88;;;1.70;;
12593;SDS011;6362;50.208;9.182;2023-11-19T00:27:44;3.25;;;1.70;;
12593;SDS011;6362;50.208;9.182;2023-11-19T00:30:10;1.63;;;1.45;;
12593;SDS011;6362;50.208;9.182;2023-11-19T00:32:36;4.15;;;1.70;;
12593;SDS011;6362;50.208;9.182;2023-11-19T00:35:03;1.95;;;1.60;;
12593;SDS011;6362;50.208;9.182;2023-11-19T00:37:29;2.55;;;1.55;;
12593;SDS011;6362;50.208;9.182;2023-11-19T00:39:55;1.63;;;1.30;;
12593;SDS011;6362;50.208;9.182;2023-11-19T00:42:21;1.30;;;1.20;;
12593;SDS011;6362;50.208;9.182;2023-11-19T00:44:49;2.65;;;1.38;;
12593;SDS011;6362;50.208;9.182;2023-11-19T00:47:14;1.27;;;1.08;;
12593;SDS011;6362;50.208;9.182;2023-11-19T00:49:39;1.58;;;1.02;;
12593;SDS011;6362;50.208;9.182;2023-11-19T00:52:05;1.73;;;0.90;;
12593;SDS011;6362;50.208;9.182;2023-11-19T00:54:31;2.28;;;1.50;;
12593;SDS011;6362;50.208;9.182;2023-11-19T00:56:57;2.05;;;1.10;;
12593;SDS011;6362;50.208;9.182;2023-11-19T00:59:23;1.70;;;1.00;;
12593;SDS011;6362;50.208;9.182;2023-11-19T01:01:48;1.90;;;1.35;;
12593;SDS011;6362;50.208;9.182;2023-11-19T01:04:14;2.58;;;1.27;;
12593;SDS011;6362;50.208;9.182;2023-11-19T01:06:40;3.58;;;1.42;;
12593;SDS011;6362;50.208;9.182;2023-11-19T01:09:07;5.50;;;2.55;;
12593;SDS011;6362;50.208;9.182;2023-11-19T01:11:33;1.40;;;1.20;;
12593;SDS011;6362;50.208;9.182;2023-11-19T01:13:59;1.42;;;1.10;;
12593;SDS011;6362;50.208;9.182;2023-11-19T01:16:25;1.70;;;1.15;;
12593;SDS011;6362;50.208;9.182;2023-11-19T01:18:51;1.75;;;1.20;;
12593;SDS011;6362;50.208;9.182;2023-11-19T01:21:17;1.52;;;1.15;;
12593;SDS011;6362;50.208;9.182;2023-11-19T01:23:43;1.88;;;1.23;;
12593;SDS011;6362;50.208;9.182;2023-11-19T01:26:09;1.90;;;1.45;;
12593;SDS011;6362;50.208;9.182;2023-11-19T01:28:38;2.40;;;2.15;;
12593;SDS011;6362;50.208;9.182;2023-11-19T01:31:09;1.50;;;1.40;;
12593;SDS011;6362;50.208;9.182;2023-11-19T01:33:39;2.45;;;1.27;;
12593;SDS011;6362;50.208;9.182;2023-11-19T01:36:06;2.25;;;1.42;;
12593;SDS011;6362;50.208;9.182;2023-11-19T01:38:33;3.42;;;1.50;;
12593;SDS011;6362;50.208;9.182;2023-11-19T01:40:59;2.03;;;1.50;;
12593;SDS011;6362;50.208;9.182;2023-11-19T01:43:35;1.83;;;1.55;;
12593;SDS011;6362;50.208;9.182;2023-11-19T01:46:05;1.73;;;1.38;;
12593;SDS011;6362;50.208;9.182;2023-11-19T01:48:32;1.50;;;1.38;;
12593;SDS011;6362;50.208;9.182;2023-11-19T01:51:00;3.80;;;1.60;;
12593;SDS011;6362;50.208;9.182;2023-11-19T01:53:26;2.30;;;1.60;;
12593;SDS011;6362;50.208;9.182;2023-11-19T01:55:52;1.90;;;1.42;;
12593;SDS011;6362;50.208;9.182;2023-11-19T01:58:18;1.55;;;1.45;;
12593;SDS011;6362;50.208;9.182;2023-11-19T02:00:44;1.50;;;1.33;;
12593;SDS011;6362;50.208;9.182;2023-11-19T02:03:10;2.20;;;1.63;;
12593;SDS011;6362;50.208;9.182;2023-11-19T02:05:36;3.60;;;1.45;;
12593;SDS011;6362;50.208;9.182;2023-11-19T02:08:03;2.10;;;1.67;;
12593;SDS011;6362;50.208;9.182;2023-11-19T02:10:29;3.58;;;1.48;;
12593;SDS011;6362;50.208;9.182;2023-11-19T02:12:54;1.77;;;1.33;;
12593;SDS011;6362;50.208;9.182;2023-11-19T02:15:20;2.55;;;1.30;;
12593;SDS011;6362;50.208;9.182;2023-11-19T02:17:48;2.78;;;1.30;;
12593;SDS011;6362;50.208;9.182;2023-11-19T02:20:13;2.25;;;1.15;;
12593;SDS011;6362;50.208;9.182;2023-11-19T02:22:40;1.20;;;1.02;;
12593;SDS011;6362;50.208;9.182;2023-11-19T02:25:23;1.50;;;1.40;;
12593;SDS011;6362;50.208;9.182;2023-11-19T02:27:55;1.85;;;1.52;;
12593;SDS011;6362;50.208;9.182;2023-11-19T02:30:24;2.08;;;1.42;;
12593;SDS011;6362;50.208;9.182;2023-11-19T02:32:58;1.95;;;1.20;;
12593;SDS011;6362;50.208;9.182;2023-11-19T02:35:26;2.63;;;1.20;;
12593;SDS011;6362;50.208;9.182;2023-11-19T02:37:51;1.95;;;1.13;;
12593;SDS011;6362;50.208;9.182;2023-11-19T02:40:17;1.35;;;1.25;;
12593;SDS011;6362;50.208;9.182;2023-11-19T02:42:43;2.65;;;1.30;;
12593;SDS011;6362;50.208;9.182;2023-11-19T02:45:09;1.20;;;1.10;;
12593;SDS011;6362;50.208;9.182;2023-11-19T02:47:42;1.40;;;1.30;;
12593;SDS011;6362;50.208;9.182;2023-11-19T02:50:08;1.77;;;1.08;;
12593;SDS011;6362;50.208;9.182;2023-11-19T02:52:44;2.58;;;1.20;;
12593;SDS011;6362;50.208;9.182;2023-11-19T02:55:11;1.38;;;0.90;;
12593;SDS011;6362;50.208;9.182;2023-11-19T02:57:40;1.20;;;0.77;;
12593;SDS011;6362;50.208;9.182;2023-11-19T03:00:14;1.15;;;1.02;;
12593;SDS011;6362;50.208;9.182;2023-11-19T03:02:43;1.92;;;1.00;;
12593;SDS011;6362;50.208;9.182;2023-11-19T03:05:12;1.60;;;1.08;;
12593;SDS011;6362;50.208;9.182;2023-11-19T03:07:40;1.40;;;1.20;;
12593;SDS011;6362;50.208;9.182;2023-11-19T03:10:07;0.98;;;0.93;;
12593;SDS011;6362;50.208;9.182;2023-11-19T03:12:34;0.93;;;0.82;;
12593;SDS011;6362;50.208;9.182;2023-11-19T03:15:00;1.75;;;1.63;;
12593;SDS011;6362;50.208;9.182;2023-11-19T03:17:26;0.95;;;0.90;;
12593;SDS011;6362;50.208;9.182;2023-11-19T03:19:51;1.20;;;1.10;;
12593;SDS011;6362;50.208;9.182;2023-11-19T03:22:17;1.08;;;0.98;;
12593;SDS011;6362;50.208;9.182;2023-11-19T03:24:42;2.67;;;1.25;;
12593;SDS011;6362;50.208;9.182;2023-11-19T03:27:07;1.58;;;1.00;;
12593;SDS011;6362;50.208;9.182;2023-11-19T03:29:33;2.60;;;1.20;;
12593;SDS011;6362;50.208;9.182;2023-11-19T03:31:58;1.40;;;1.00;;
12593;SDS011;6362;50.208;9.182;2023-11-19T03:34:24;1.83;;;0.70;;
12593;SDS011;6362;50.208;9.182;2023-11-19T03:36:49;1.23;;;1.13;;
12593;SDS011;6362;50.208;9.182;2023-11-19T03:39:14;0.75;;;0.73;;
12593;SDS011;6362;50.208;9.182;2023-11-19T03:41:40;0.77;;;0.77;;
12593;SDS011;6362;50.208;9.182;2023-11-19T03:44:05;0.70;;;0.70;;
12593;SDS011;6362;50.208;9.182;2023-11-19T03:46:31;0.88;;;0.85;;
12593;SDS011;6362;50.208;9.182;2023-11-19T03:48:56;0.60;;;0.50;;
12593;SDS011;6362;50.208;9.182;2023-11-19T03:51:22;0.60;;;0.60;;
12593;SDS011;6362;50.208;9.182;2023-11-19T03:53:47;0.50;;;0.50;;
12593;SDS011;6362;50.208;9.182;2023-11-19T03:56:13;1.58;;;0.88;;
12593;SDS011;6362;50.208;9.182;2023-11-19T03:58:38;0.60;;;0.60;;
12593;SDS011;6362;50.208;9.182;2023-11-19T04:01:04;0.75;;;0.55;;
12593;SDS011;6362;50.208;9.182;2023-11-19T04:03:30;1.02;;;0.70;;
12593;SDS011;6362;50.208;9.182;2023-11-19T04:05:56;0.95;;;0.63;;
12593;SDS011;6362;50.208;9.182;2023-11-19T04:08:22;0.65;;;0.65;;
12593;SDS011;6362;50.208;9.182;2023-11-19T04:10:47;0.93;;;0.80;;
12593;SDS011;6362;50.208;9.182;2023-11-19T04:13:13;2.20;;;0.77;;
12593;SDS011;6362;50.208;9.182;2023-11-19T04:15:38;1.10;;;0.80;;
12593;SDS011;6362;50.208;9.182;2023-11-19T04:18:04;0.93;;;0.80;;
12593;SDS011;6362;50.208;9.182;2023-11-19T04:20:29;0.90;;;0.80;;
12593;SDS011;6362;50.208;9.182;2023-11-19T04:22:55;1.30;;;1.00;;
12593;SDS011;6362;50.208;9.182;2023-11-19T04:25:21;0.70;;;0.60;;
12593;SDS011;6362;50.208;9.182;2023-11-19T04:27:46;0.80;;;0.80;;
12593;SDS011;6362;50.208;9.182;2023-11-19T04:30:13;1.25;;;0.80;;
12593;SDS011;6362;50.208;9.182;2023-11-19T04:32:38;0.85;;;0.77;;
12593;SDS011;6362;50.208;9.182;2023-11-19T04:35:04;1.35;;;0.60;;
12593;SDS011;6362;50.208;9.182;2023-11-19T04:37:31;1.00;;;0.98;;
12593;SDS011;6362;50.208;9.182;2023-11-19T04:39:57;2.67;;;0.80;;
12593;SDS011;6362;50.208;9.182;2023-11-19T04:42:22;1.13;;;1.00;;
12593;SDS011;6362;50.208;9.182;2023-11-19T04:44:49;2.58;;;0.75;;
12593;SDS011;6362;50.208;9.182;2023-11-19T04:47:14;2.80;;;0.95;;
12593;SDS011;6362;50.208;9.182;2023-11-19T04:49:40;2.33;;;1.02;;
12593;SDS011;6362;50.208;9.182;2023-11-19T04:52:08;1.38;;;0.82;;
12593;SDS011;6362;50.208;9.182;2023-11-19T04:54:33;1.45;;;0.70;;
12593;SDS011;6362;50.208;9.182;2023-11-19T04:56:59;0.90;;;0.80;;
12593;SDS011;6362;50.208;9.182;2023-11-19T04:59:24;2.90;;;1.10;;
12593;SDS011;6362;50.208;9.182;2023-11-19T05:01:50;0.95;;;0.85;;
12593;SDS011;6362;50.208;9.182;2023-11-19T05:04:15;0.65;;;0.65;;
12593;SDS011;6362;50.208;9.182;2023-11-19T05:06:43;0.70;;;0.68;;
12593;SDS011;6362;50.208;9.182;2023-11-19T05:09:09;0.50;;;0.50;;
12593;SDS011;6362;50.208;9.182;2023-11-19T05:11:37;0.80;;;0.80;;
12593;SDS011;6362;50.208;9.182;2023-11-19T05:14:04;0.70;;;0.70;;
12593;SDS011;6362;50.208;9.182;2023-11-19T05:16:30;2.45;;;1.00;;
12593;SDS011;6362;50.208;9.182;2023-11-19T05:18:56;1.23;;;0.90;;
12593;SDS011;6362;50.208;9.182;2023-11-19T05:21:21;0.75;;;0.70;;
12593;SDS011;6362;50.208;9.182;2023-11-19T05:23:47;0.77;;;0.70;;
12593;SDS011;6362;50.208;9.182;2023-11-19T05:26:22;1.52;;;0.85;;
12593;SDS011;6362;50.208;9.182;2023-11-19T05:28:49;3.85;;;0.90;;
12593;SDS011;6362;50.208;9.182;2023-11-19T05:31:15;1.10;;;0.70;;
12593;SDS011;6362;50.208;9.182;2023-11-19T05:33:42;0.90;;;0.75;;
12593;SDS011;6362;50.208;9.182;2023-11-19T05:36:07;1.00;;;0.90;;
12593;SDS011;6362;50.208;9.182;2023-11-19T05:38:33;0.88;;;0.80;;
12593;SDS011;6362;50.208;9.182;2023-11-19T05:41:00;0.82;;;0.80;;
12593;SDS011;6362;50.208;9.182;2023-11-19T05:43:25;1.10;;;0.90;;
12593;SDS011;6362;50.208;9.182;2023-11-19T05:45:51;1.00;;;0.82;;
12593;SDS011;6362;50.208;9.182;2023-11-19T05:48:16;1.10;;;0.82;;
12593;SDS011;6362;50.208;9.182;2023-11-19T05:50:42;1.15;;;0.85;;
12593;SDS011;6362;50.208;9.182;2023-11-19T05:53:07;2.05;;;1.17;;
12593;SDS011;6362;50.208;9.182;2023-11-19T05:55:36;1.17;;;0.77;;
12593;SDS011;6362;50.208;9.182;2023-11-19T05:58:10;2.75;;;1.13;;
12593;SDS011;6362;50.208;9.182;2023-11-19T06:00:37;1.05;;;0.90;;
12593;SDS011;6362;50.208;9.182;2023-11-19T06:03:03;3.03;;;1.05;;
12593;SDS011;6362;50.208;9.182;2023-11-19T06:05:29;2.20;;;0.95;;
12593;SDS011;6362;50.208;9.182;2023-11-19T06:56:31;4.87;;;1.57;;
12593;SDS011;6362;50.208;9.182;2023-11-19T06:58:56;2.17;;;1.92;;
12593;SDS011;6362;50.208;9.182;2023-11-19T07:01:21;2.25;;;1.85;;
12593;SDS011;6362;50.208;9.182;2023-11-19T07:03:47;2.40;;;2.00;;
12593;SDS011;6362;50.208;9.182;2023-11-19T07:08:42;2.38;;;2.00;;
12593;SDS011;6362;50.208;9.182;2023-11-19T07:11:12;3.33;;;2.08;;
12593;SDS011;6362;50.208;9.182;2023-11-19T07:13:39;1.88;;;1.60;;
12593;SDS011;6362;50.208;9.182;2023-11-19T07:16:05;3.45;;;1.95;;
12593;SDS011;6362;50.208;9.182;2023-11-19T07:18:31;1.90;;;1.67;;
12593;SDS011;6362;50.208;9.182;2023-11-19T07:20:56;1.80;;;1.65;;
12593;SDS011;6362;50.208;9.182;2023-11-19T07:23:22;3.25;;;2.05;;
12593;SDS011;6362;50.208;9.182;2023-11-19T07:25:48;3.33;;;2.20;;
12593;SDS011;6362;50.208;9.182;2023-11-19T07:28:15;4.07;;;3.08;;
12593;SDS011;6362;50.208;9.182;2023-11-19T07:30:41;3.33;;;2.80;;
12593;SDS011;6362;50.208;9.182;2023-11-19T07:33:07;2.55;;;2.17;;
12593;SDS011;6362;50.208;9.182;2023-11-19T07:35:33;2.30;;;1.98;;
12593;SDS011;6362;50.208;9.182;2023-11-19T07:37:59;5.88;;;2.47;;
12593;SDS011;6362;50.208;9.182;2023-11-19T07:40:24;2.60;;;2.20;;
12593;SDS011;6362;50.208;9.182;2023-11-19T07:42:50;3.28;;;2.90;;
12593;SDS011;6362;50.208;9.182;2023-11-19T07:45:16;2.78;;;2.40;;
12593;SDS011;6362;50.208;9.182;2023-11-19T07:47:42;4.20;;;2.22;;
12593;SDS011;6362;50.208;9.182;2023-11-19T07:50:09;2.63;;;2.40;;
12593;SDS011;6362;50.208;9.182;2023-11-19T07:52:35;3.35;;;2.42;;
12593;SDS011;6362;50.208;9.182;2023-11-19T07:55:01;2.70;;;2.25;;
12593;SDS011;6362;50.208;9.182;2023-11-19T07:57:27;3.35;;;2.47;;
12593;SDS011;6362;50.208;9.182;2023-11-19T07:59:55;2.88;;;2.50;;
12593;SDS011;6362;50.208;9.182;2023-11-19T08:02:21;4.50;;;2.30;;
12593;SDS011;6362;50.208;9.182;2023-11-19T08:04:48;3.15;;;2.30;;
12593;SDS011;6362;50.208;9.182;2023-11-19T08:07:16;4.35;;;2.60;;
12593;SDS011;6362;50.208;9.182;2023-11-19T08:09:42;2.88;;;2.03;;
12593;SDS011;6362;50.208;9.182;2023-11-19T08:12:08;3.47;;;2.30;;
12593;SDS011;6362;50.208;9.182;2023-11-19T08:14:34;2.92;;;2.05;;
12593;SDS011;6362;50.208;9.182;2023-11-19T08:17:00;2.63;;;2.08;;
12593;SDS011;6362;50.208;9.182;2023-11-19T08:19:25;2.00;;;1.70;;
12593;SDS011;6362;50.208;9.182;2023-11-19T08:21:51;2.15;;;1.60;;
12593;SDS011;6362;50.208;9.182;2023-11-19T08:24:16;2.20;;;2.00;;
12593;SDS011;6362;50.208;9.182;2023-11-19T08:26:42;3.28;;;1.90;;
12593;SDS011;6362;50.208;9.182;2023-11-19T08:29:07;1.83;;;1.70;;
12593;SDS011;6362;50.208;9.182;2023-11-19T08:31:33;1.98;;;1.70;;
12593;SDS011;6362;50.208;9.182;2023-11-19T08:33:58;1.77;;;1.60;;
12593;SDS011;6362;50.208;9.182;2023-11-19T08:36:23;1.40;;;1.30;;
12593;SDS011;6362;50.208;9.182;2023-11-19T08:38:49;2.63;;;1.90;;
12593;SDS011;6362;50.208;9.182;2023-11-19T08:41:16;2.47;;;1.40;;
12593;SDS011;6362;50.208;9.182;2023-11-19T08:43:43;2.25;;;1.85;;
12593;SDS011;6362;50.208;9.182;2023-11-19T08:46:11;1.52;;;1.42;;
12593;SDS011;6362;50.208;9.182;2023-11-19T08:48:37;1.60;;;1.50;;
12593;SDS011;6362;50.208;9.182;2023-11-19T08:51:03;1.42;;;1.33;;
12593;SDS011;6362;50.208;9.182;2023-11-19T08:53:29;2.55;;;1.75;;
12593;SDS011;6362;50.208;9.182;2023-11-19T08:55:55;3.53;;;1.67;;
12593;SDS011;6362;50.208;9.182;2023-11-19T08:58:20;2.63;;;1.80;;
12593;SDS011;6362;50.208;9.182;2023-11-19T09:00:46;2.45;;;1.27;;
12593;SDS011;6362;50.208;9.182;2023-11-19T09:03:12;2.55;;;1.80;;
12593;SDS011;6362;50.208;9.182;2023-11-19T09:05:37;2.40;;;1.63;;
12593;SDS011;6362;50.208;9.182;2023-11-19T09:08:03;2.10;;;1.67;;
12593;SDS011;6362;50.208;9.182;2023-11-19T09:10:29;5.18;;;1.70;;
12593;SDS011;6362;50.208;9.182;2023-11-19T09:12:55;1.55;;;1.45;;
12593;SDS011;6362;50.208;9.182;2023-11-19T09:15:20;2.30;;;1.80;;
12593;SDS011;6362;50.208;9.182;2023-11-19T09:17:45;2.45;;;1.92;;
12593;SDS011;6362;50.208;9.182;2023-11-19T09:20:11;2.88;;;1.75;;
12593;SDS011;6362;50.208;9.182;2023-11-19T09:22:39;2.20;;;1.67;;
12593;SDS011;6362;50.208;9.182;2023-11-19T09:25:05;2.42;;;1.60;;
12593;SDS011;6362;50.208;9.182;2023-11-19T09:27:31;2.03;;;1.35;;
12593;SDS011;6362;50.208;9.182;2023-11-19T09:29:56;2.90;;;1.45;;
12593;SDS011;6362;50.208;9.182;2023-11-19T09:32:23;4.60;;;1.80;;
12593;SDS011;6362;50.208;9.182;2023-11-19T09:34:49;1.85;;;1.40;;
12593;SDS011;6362;50.208;9.182;2023-11-19T09:37:15;2.08;;;1.35;;
12593;SDS011;6362;50.208;9.182;2023-11-19T09:39:40;1.98;;;1.45;;
12593;SDS011;6362;50.208;9.182;2023-11-19T09:42:08;3.33;;;1.10;;
12593;SDS011;6362;50.208;9.182;2023-11-19T09:44:34;2.00;;;1.40;;
12593;SDS011;6362;50.208;9.182;2023-11-19T09:47:02;2.35;;;1.27;;
12593;SDS011;6362;50.208;9.182;2023-11-19T09:49:29;2.63;;;1.05;;
12593;SDS011;6362;50.208;9.182;2023-11-19T09:51:55;1.70;;;1.13;;
12593;SDS011;6362;50.208;9.182;2023-11-19T09:54:21;2.28;;;1.05;;
12593;SDS011;6362;50.208;9.182;2023-11-19T09:56:46;1.42;;;0.93;;
12593;SDS011;6362;50.208;9.182;2023-11-19T09:59:13;4.15;;;1.00;;
12593;SDS011;6362;50.208;9.182;2023-11-19T10:01:39;2.10;;;1.00;;
12593;SDS011;6362;50.208;9.182;2023-11-19T10:04:05;3.20;;;0.88;;
12593;SDS011;6362;50.208;9.182;2023-11-19T10:06:31;2.08;;;0.75;;
12593;SDS011;6362;50.208;9.182;2023-11-19T10:08:57;3.97;;;0.93;;
12593;SDS011;6362;50.208;9.182;2023-11-19T10:11:22;2.28;;;0.70;;
12593;SDS011;6362;50.208;9.182;2023-11-19T10:13:48;1.83;;;0.60;;
12593;SDS011;6362;50.208;9.182;2023-11-19T10:16:14;1.40;;;0.80;;
12593;SDS011;6362;50.208;9.182;2023-11-19T10:18:47;2.50;;;0.90;;
12593;SDS011;6362;50.208;9.182;2023-11-19T10:21:13;3.60;;;0.82;;
12593;SDS011;6362;50.208;9.182;2023-11-19T10:23:55;1.88;;;0.70;;
12593;SDS011;6362;50.208;9.182;2023-11-19T10:26:30;1.00;;;0.57;;
12593;SDS011;6362;50.208;9.182;2023-11-19T10:28:55;2.72;;;1.10;;
12593;SDS011;6362;50.208;9.182;2023-11-19T10:31:21;3.33;;;1.42;;
12593;SDS011;6362;50.208;9.182;2023-11-19T10:33:50;2.25;;;0.77;;
12593;SDS011;6362;50.208;9.182;2023-11-19T10:36:16;3.10;;;0.90;;
12593;SDS011;6362;50.208;9.182;2023-11-19T10:38:51;2.13;;;0.88;;
12593;SDS011;6362;50.208;9.182;2023-11-19T10:41:27;2.55;;;0.75;;
12593;SDS011;6362;50.208;9.182;2023-11-19T10:43:56;4.70;;;0.70;;
12593;SDS011;6362;50.208;9.182;2023-11-19T10:46:21;3.63;;;1.05;;
12593;SDS011;6362;50.208;9.182;2023-11-19T10:48:48;4.80;;;1.00;;
12593;SDS011;6362;50.208;9.182;2023-11-19T10:51:17;4.13;;;1.13;;
12593;SDS011;6362;50.208;9.182;2023-11-19T10:53:48;4.68;;;1.08;;
12593;SDS011;6362;50.208;9.182;2023-11-19T10:56:16;5.10;;;1.65;;
12593;SDS011;6362;50.208;9.182;2023-11-19T10:58:44;2.95;;;0.80;;
12593;SDS011;6362;50.208;9.182;2023-11-19T11:01:16;9.55;;;1.42;;
12593;SDS011;6362;50.208;9.182;2023-11-19T11:03:47;5.18;;;1.13;;
12593;SDS011;6362;50.208;9.182;2023-11-19T11:06:16;1.75;;;0.85;;
12593;SDS011;6362;50.208;9.182;2023-11-19T11:08:43;1.80;;;0.85;;
12593;SDS011;6362;50.208;9.182;2023-11-19T11:11:10;5.22;;;1.00;;
12593;SDS011;6362;50.208;9.182;2023-11-19T11:13:42;4.20;;;1.05;;
12593;SDS011;6362;50.208;9.182;2023-11-19T11:16:09;2.88;;;0.63;;
12593;SDS011;6362;50.208;9.182;2023-11-19T11:18:36;5.95;;;0.80;;
12593;SDS011;6362;50.208;9.182;2023-11-19T11:21:11;6.32;;;1.55;;
12593;SDS011;6362;50.208;9.182;2023-11-19T11:31:48;2.92;;;1.27;;
12593;SDS011;6362;50.208;9.182;2023-11-19T11:37:39;4.05;;;1.42;;
12593;SDS011;6362;50.208;9.182;2023-11-19T11:40:16;5.65;;;0.90;;
12593;SDS011;6362;50.208;9.182;2023-11-19T11:42:46;6.85;;;1.38;;
12593;SDS011;6362;50.208;9.182;2023-11-19T11:45:12;5.30;;;1.02;;
12593;SDS011;6362;50.208;9.182;2023-11-19T11:50:09;6.38;;;1.52;;
12593;SDS011;6362;50.208;9.182;2023-11-19T11:55:24;7.45;;;1.50;;
12593;SDS011;6362;50.208;9.182;2023-11-19T11:57:50;3.05;;;1.38;;
12593;SDS011;6362;50.208;9.182;2023-11-19T12:00:22;6.40;;;1.42;;
12593;SDS011;6362;50.208;9.182;2023-11-19T12:03:04;3.38;;;1.25;;
12593;SDS011;6362;50.208;9.182;2023-11-19T12:05:31;5.50;;;1.23;;
12593;SDS011;6362;50.208;9.182;2023-11-19T12:08:05;5.78;;;1.65;;
12593;SDS011;6362;50.208;9.182;2023-11-19T12:10:37;4.30;;;1.42;;
12593;SDS011;6362;50.208;9.182;2023-11-19T12:13:09;4.07;;;1.13;;
12593;SDS011;6362;50.208;9.182;2023-11-19T12:18:21;9.70;;;1.55;;
12593;SDS011;6362;50.208;9.182;2023-11-19T12:20:48;6.80;;;1.55;;
12593;SDS011;6362;50.208;9.182;2023-11-19T12:23:14;10.45;;;1.92;;
12593;SDS011;6362;50.208;9.182;2023-11-19T12:25:40;7.47;;;1.33;;
12593;SDS011;6362;50.208;9.182;2023-11-19T12:28:05;9.00;;;1.70;;
12593;SDS011;6362;50.208;9.182;2023-11-19T12:30:31;11.75;;;1.98;;
12593;SDS011;6362;50.208;9.182;2023-11-19T12:32:56;10.82;;;1.75;;
12593;SDS011;6362;50.208;9.182;2023-11-19T12:35:22;12.10;;;2.20;;
12593;SDS011;6362;50.208;9.182;2023-11-19T12:37:51;7.15;;;2.35;;
12593;SDS011;6362;50.208;9.182;2023-11-19T12:40:21;10.10;;;2.08;;
12593;SDS011;6362;50.208;9.182;2023-11-19T12:42:48;6.93;;;1.58;;
12593;SDS011;6362;50.208;9.182;2023-11-19T12:45:14;9.30;;;1.40;;
12593;SDS011;6362;50.208;9.182;2023-11-19T12:47:41;7.75;;;1.67;;
12593;SDS011;6362;50.208;9.182;2023-11-19T12:50:12;8.10;;;1.80;;
12593;SDS011;6362;50.208;9.182;2023-11-19T12:52:38;7.10;;;1.73;;
12593;SDS011;6362;50.208;9.182;2023-11-19T12:55:04;8.88;;;1.70;;
12593;SDS011;6362;50.208;9.182;2023-11-19T12:57:40;6.03;;;1.85;;
12593;SDS011;6362;50.208;9.182;2023-11-19T13:00:07;12.18;;;2.00;;
12593;SDS011;6362;50.208;9.182;2023-11-19T13:02:49;9.60;;;1.33;;
12593;SDS011;6362;50.208;9.182;2023-11-19T13:05:26;11.48;;;1.80;;
12593;SDS011;6362;50.208;9.182;2023-11-19T13:10:28;5.93;;;1.65;;
12593;SDS011;6362;50.208;9.182;2023-11-19T13:13:07;8.52;;;1.70;;
12593;SDS011;6362;50.208;9.182;2023-11-19T13:15:33;7.97;;;1.75;;
12593;SDS011;6362;50.208;9.182;2023-11-19T13:18:00;7.18;;;1.85;;
12593;SDS011;6362;50.208;9.182;2023-11-19T13:20:26;6.72;;;1.60;;
12593;SDS011;6362;50.208;9.182;2023-11-19T13:22:59;6.18;;;1.52;;
12593;SDS011;6362;50.208;9.182;2023-11-19T13:25:27;9.68;;;1.80;;
12593;SDS011;6362;50.208;9.182;2023-11-19T13:27:53;7.97;;;1.70;;
12593;SDS011;6362;50.208;9.182;2023-11-19T13:30:19;10.40;;;1.60;;
12593;SDS011;6362;50.208;9.182;2023-11-19T13:32:45;5.43;;;1.48;;
12593;SDS011;6362;50.208;9.182;2023-11-19T13:35:11;5.97;;;2.25;;
12593;SDS011;6362;50.208;9.182;2023-11-19T13:37:38;7.30;;;2.20;;
12593;SDS011;6362;50.208;9.182;2023-11-19T13:40:04;8.25;;;1.75;;
12593;SDS011;6362;50.208;9.182;2023-11-19T13:42:32;7.47;;;1.77;;
12593;SDS011;6362;50.208;9.182;2023-11-19T13:44:57;7.10;;;1.90;;
12593;SDS011;6362;50.208;9.182;2023-11-19T13:47:23;7.82;;;1.58;;
12593;SDS011;6362;50.208;9.182;2023-11-19T13:49:49;4.28;;;1.58;;
12593;SDS011;6362;50.208;9.182;2023-11-19T13:52:15;6.37;;;1.23;;
12593;SDS011;6362;50.208;9.182;2023-11-19T13:54:40;11.50;;;2.10;;
12593;SDS011;6362;50.208;9.182;2023-11-19T13:57:06;9.95;;;1.95;;
12593;SDS011;6362;50.208;9.182;2023-11-19T13:59:31;4.30;;;1.50;;
12593;SDS011;6362;50.208;9.182;2023-11-19T14:02:00;8.10;;;2.30;;
12593;SDS011;6362;50.208;9.182;2023-11-19T14:04:25;7.75;;;2.08;;
12593;SDS011;6362;50.208;9.182;2023-11-19T14:06:51;6.38;;;1.13;;
12593;SDS011;6362;50.208;9.182;2023-11-19T14:09:17;8.05;;;1.30;;
12593;SDS011;6362;50.208;9.182;2023-11-19T14:11:42;6.70;;;1.30;;
12593;SDS011;6362;50.208;9.182;2023-11-19T14:14:08;8.75;;;1.92;;
12593;SDS011;6362;50.208;9.182;2023-11-19T14:16:34;11.10;;;1.83;;
12593;SDS011;6362;50.208;9.182;2023-11-19T14:19:00;7.05;;;1.52;;
12593;SDS011;6362;50.208;9.182;2023-11-19T14:21:25;4.35;;;1.30;;
12593;SDS011;6362;50.208;9.182;2023-11-19T14:23:51;4.28;;;1.35;;
12593;SDS011;6362;50.208;9.182;2023-11-19T14:26:17;6.65;;;1.50;;
12593;SDS011;6362;50.208;9.182;2023-11-19T14:28:43;8.43;;;2.15;;
12593;SDS011;6362;50.208;9.182;2023-11-19T14:31:08;6.65;;;1.63;;
12593;SDS011;6362;50.208;9.182;2023-11-19T14:33:34;5.32;;;1.48;;
12593;SDS011;6362;50.208;9.182;2023-11-19T14:36:01;7.18;;;1.35;;
12593;SDS011;6362;50.208;9.182;2023-11-19T14:38:27;4.82;;;1.25;;
12593;SDS011;6362;50.208;9.182;2023-11-19T14:40:52;11.95;;;2.20;;
12593;SDS011;6362;50.208;9.182;2023-11-19T14:43:18;7.97;;;1.70;;
12593;SDS011;6362;50.208;9.182;2023-11-19T14:45:43;8.85;;;2.25;;
12593;SDS011;6362;50.208;9.182;2023-11-19T14:48:08;8.30;;;2.28;;
12593;SDS011;6362;50.208;9.182;2023-11-19T14:50:35;4.05;;;1.13;;
12593;SDS011;6362;50.208;9.182;2023-11-19T14:53:00;6.07;;;1.75;;
12593;SDS011;6362;50.208;9.182;2023-11-19T14:55:26;5.63;;;1.55;;
12593;SDS011;6362;50.208;9.182;2023-11-19T14:57:51;5.85;;;1.50;;
12593;SDS011;6362;50.208;9.182;2023-11-19T15:00:17;11.27;;;2.03;;
12593;SDS011;6362;50.208;9.182;2023-11-19T15:02:43;6.45;;;1.40;;
12593;SDS011;6362;50.208;9.182;2023-11-19T15:05:08;6.70;;;1.65;;
12593;SDS011;6362;50.208;9.182;2023-11-19T15:07:38;13.93;;;2.15;;
12593;SDS011;6362;50.208;9.182;2023-11-19T15:10:05;8.02;;;1.60;;
12593;SDS011;6362;50.208;9.182;2023-11-19T15:12:36;9.85;;;1.70;;
12593;SDS011;6362;50.208;9.182;2023-11-19T15:15:05;8.90;;;1.73;;
12593;SDS011;6362;50.208;9.182;2023-11-19T15:17:38;6.65;;;1.60;;
12593;SDS011;6362;50.208;9.182;2023-11-19T15:20:04;11.52;;;1.77;;
12593;SDS011;6362;50.208;9.182;2023-11-19T15:22:30;8.73;;;1.50;;
12593;SDS011;6362;50.208;9.182;2023-11-19T15:24:56;7.65;;;1.75;;
12593;SDS011;6362;50.208;9.182;2023-11-19T15:27:21;12.25;;;2.13;;
12593;SDS011;6362;50.208;9.182;2023-11-19T15:29:47;8.82;;;1.30;;
12593;SDS011;6362;50.208;9.182;2023-11-19T15:32:13;6.10;;;1.65;;
12593;SDS011;6362;50.208;9.182;2023-11-19T15:34:39;11.02;;;1.52;;
12593;SDS011;6362;50.208;9.182;2023-11-19T15:37:06;11.07;;;2.03;;
12593;SDS011;6362;50.208;9.182;2023-11-19T15:39:34;7.18;;;1.75;;
12593;SDS011;6362;50.208;9.182;2023-11-19T15:42:01;7.63;;;1.95;;
12593;SDS011;6362;50.208;9.182;2023-11-19T15:44:27;13.10;;;2.35;;
12593;SDS011;6362;50.208;9.182;2023-11-19T15:46:53;7.55;;;2.30;;
12593;SDS011;6362;50.208;9.182;2023-11-19T15:49:19;7.88;;;2.35;;
12593;SDS011;6362;50.208;9.182;2023-11-19T15:51:44;10.98;;;2.42;;
12593;SDS011;6362;50.208;9.182;2023-11-19T15:54:10;11.68;;;2.78;;
12593;SDS011;6362;50.208;9.182;2023-11-19T15:56:36;10.68;;;2.58;;
12593;SDS011;6362;50.208;9.182;2023-11-19T15:59:02;11.18;;;3.08;;
12593;SDS011;6362;50.208;9.182;2023-11-19T16:01:29;9.23;;;2.75;;
12593;SDS011;6362;50.208;9.182;2023-11-19T16:03:55;7.82;;;2.15;;
12593;SDS011;6362;50.208;9.182;2023-11-19T16:06:21;9.52;;;2.22;;
12593;SDS011;6362;50.208;9.182;2023-11-19T16:08:46;6.47;;;1.90;;
12593;SDS011;6362;50.208;9.182;2023-11-19T16:11:13;10.40;;;3.00;;